sensor_id;sensor_type;location;lat;lon;timestamp;P1;durP1;ratioP1;P2;durP2;ratioP2
51792;SDS011;37850;53.178;6.376;2023-02-14T00:02:08;67.03;;;14.82;;
51792;SDS011;37850;53.178;6.376;2023-02-14T00:04:34;41.20;;;14.35;;
51792;SDS011;37850;53.178;6.376;2023-02-14T00:07:02;107.53;;;17.15;;
51792;SDS011;37850;53.178;6.376;2023-02-14T00:09:29;253.35;;;19.63;;
51792;SDS011;37850;53.178;6.376;2023-02-14T00:11:56;67.47;;;16.92;;
51792;SDS011;37850;53.178;6.376;2023-02-14T00:14:21;111.18;;;17.10;;
51792;SDS011;37850;53.178;6.376;2023-02-14T00:17:06;56.95;;;16.17;;
51792;SDS011;37850;53.178;6.376;2023-02-14T00:19:31;86.03;;;17.13;;
51792;SDS011;37850;53.178;6.376;2023-02-14T00:21:58;32.03;;;17.02;;
51792;SDS011;37850;53.178;6.376;2023-02-14T00:24:24;40.50;;;16.75;;
51792;SDS011;37850;53.178;6.376;2023-02-14T00:26:51;27.95;;;16.73;;
51792;SDS011;37850;53.178;6.376;2023-02-14T00:29:22;142.23;;;20.75;;
51792;SDS011;37850;53.178;6.376;2023-02-14T00:31:50;158.27;;;20.95;;
51792;SDS011;37850;53.178;6.376;2023-02-14T00:34:16;105.30;;;20.50;;
51792;SDS011;37850;53.178;6.376;2023-02-14T00:36:43;49.45;;;18.67;;
51792;SDS011;37850;53.178;6.376;2023-02-14T00:39:09;36.88;;;17.55;;
51792;SDS011;37850;53.178;6.376;2023-02-14T00:41:37;66.82;;;19.98;;
51792;SDS011;37850;53.178;6.376;2023-02-14T00:44:03;67.60;;;18.50;;
51792;SDS011;37850;53.178;6.376;2023-02-14T00:46:30;34.92;;;18.20;;
51792;SDS011;37850;53.178;6.376;2023-02-14T00:48:56;76.18;;;20.77;;
51792;SDS011;37850;53.178;6.376;2023-02-14T00:51:22;57.28;;;18.20;;
51792;SDS011;37850;53.178;6.376;2023-02-14T00:53:49;41.17;;;18.55;;
51792;SDS011;37850;53.178;6.376;2023-02-14T00:56:15;48.17;;;18.38;;
51792;SDS011;37850;53.178;6.376;2023-02-14T00:58:42;70.00;;;18.83;;
51792;SDS011;37850;53.178;6.376;2023-02-14T01:01:08;57.38;;;20.17;;
51792;SDS011;37850;53.178;6.376;2023-02-14T01:03:35;56.08;;;18.60;;
51792;SDS011;37850;53.178;6.376;2023-02-14T01:06:02;106.40;;;20.45;;
51792;SDS011;37850;53.178;6.376;2023-02-14T01:08:28;89.38;;;18.83;;
51792;SDS011;37850;53.178;6.376;2023-02-14T01:10:54;54.05;;;19.08;;
51792;SDS011;37850;53.178;6.376;2023-02-14T01:13:20;58.13;;;18.33;;
51792;SDS011;37850;53.178;6.376;2023-02-14T01:15:47;41.38;;;19.00;;
51792;SDS011;37850;53.178;6.376;2023-02-14T01:18:15;121.60;;;21.75;;
51792;SDS011;37850;53.178;6.376;2023-02-14T01:20:42;69.75;;;19.15;;
51792;SDS011;37850;53.178;6.376;2023-02-14T01:23:08;71.72;;;20.98;;
51792;SDS011;37850;53.178;6.376;2023-02-14T01:25:37;126.03;;;21.88;;
51792;SDS011;37850;53.178;6.376;2023-02-14T01:28:04;160.13;;;23.23;;
51792;SDS011;37850;53.178;6.376;2023-02-14T01:30:30;97.20;;;21.40;;
51792;SDS011;37850;53.178;6.376;2023-02-14T01:32:57;225.07;;;24.55;;
51792;SDS011;37850;53.178;6.376;2023-02-14T01:35:23;70.07;;;19.65;;
51792;SDS011;37850;53.178;6.376;2023-02-14T01:37:48;53.97;;;18.60;;
51792;SDS011;37850;53.178;6.376;2023-02-14T01:40:14;44.25;;;19.65;;
51792;SDS011;37850;53.178;6.376;2023-02-14T01:42:41;94.68;;;20.92;;
51792;SDS011;37850;53.178;6.376;2023-02-14T01:45:08;116.30;;;21.73;;
51792;SDS011;37850;53.178;6.376;2023-02-14T01:47:39;69.97;;;21.10;;
51792;SDS011;37850;53.178;6.376;2023-02-14T01:50:13;98.00;;;19.88;;
51792;SDS011;37850;53.178;6.376;2023-02-14T01:52:52;37.38;;;18.00;;
51792;SDS011;37850;53.178;6.376;2023-02-14T01:55:22;118.13;;;19.65;;
51792;SDS011;37850;53.178;6.376;2023-02-14T01:57:57;37.35;;;18.48;;
51792;SDS011;37850;53.178;6.376;2023-02-14T02:00:28;50.90;;;19.05;;
51792;SDS011;37850;53.178;6.376;2023-02-14T02:03:13;43.38;;;18.95;;
51792;SDS011;37850;53.178;6.376;2023-02-14T02:05:43;38.10;;;19.85;;
51792;SDS011;37850;53.178;6.376;2023-02-14T02:08:12;41.08;;;20.15;;
51792;SDS011;37850;53.178;6.376;2023-02-14T02:10:38;31.98;;;18.88;;
51792;SDS011;37850;53.178;6.376;2023-02-14T02:13:05;34.63;;;18.55;;
51792;SDS011;37850;53.178;6.376;2023-02-14T02:15:38;35.90;;;20.13;;
51792;SDS011;37850;53.178;6.376;2023-02-14T02:23:52;37.00;;;20.17;;
51792;SDS011;37850;53.178;6.376;2023-02-14T02:26:37;39.85;;;21.20;;
51792;SDS011;37850;53.178;6.376;2023-02-14T02:31:58;40.42;;;22.20;;
51792;SDS011;37850;53.178;6.376;2023-02-14T02:42:33;44.83;;;22.80;;
51792;SDS011;37850;53.178;6.376;2023-02-14T02:56:17;45.38;;;23.38;;
51792;SDS011;37850;53.178;6.376;2023-02-14T02:59:28;44.75;;;23.65;;
51792;SDS011;37850;53.178;6.376;2023-02-14T03:02:06;54.03;;;23.65;;
51792;SDS011;37850;53.178;6.376;2023-02-14T03:04:43;59.65;;;25.73;;
51792;SDS011;37850;53.178;6.376;2023-02-14T03:07:18;45.80;;;23.95;;
51792;SDS011;37850;53.178;6.376;2023-02-14T03:10:11;50.15;;;25.30;;
51792;SDS011;37850;53.178;6.376;2023-02-14T03:13:26;51.50;;;24.35;;
51792;SDS011;37850;53.178;6.376;2023-02-14T03:21:46;50.83;;;23.85;;
51792;SDS011;37850;53.178;6.376;2023-02-14T03:27:09;46.88;;;23.63;;
51792;SDS011;37850;53.178;6.376;2023-02-14T03:30:03;53.42;;;24.88;;
51792;SDS011;37850;53.178;6.376;2023-02-14T03:35:24;48.13;;;23.10;;
51792;SDS011;37850;53.178;6.376;2023-02-14T03:40:46;41.63;;;21.63;;
51792;SDS011;37850;53.178;6.376;2023-02-14T03:43:32;44.85;;;21.08;;
51792;SDS011;37850;53.178;6.376;2023-02-14T03:46:19;42.75;;;21.55;;
51792;SDS011;37850;53.178;6.376;2023-02-14T03:48:50;42.58;;;21.45;;
51792;SDS011;37850;53.178;6.376;2023-02-14T03:51:19;42.45;;;22.02;;
51792;SDS011;37850;53.178;6.376;2023-02-14T03:53:49;37.65;;;20.70;;
51792;SDS011;37850;53.178;6.376;2023-02-14T03:58:48;63.05;;;22.92;;
51792;SDS011;37850;53.178;6.376;2023-02-14T04:01:29;45.40;;;22.45;;
51792;SDS011;37850;53.178;6.376;2023-02-14T04:04:06;97.20;;;23.75;;
51792;SDS011;37850;53.178;6.376;2023-02-14T04:06:34;74.43;;;22.30;;
51792;SDS011;37850;53.178;6.376;2023-02-14T04:08:59;70.03;;;21.60;;
51792;SDS011;37850;53.178;6.376;2023-02-14T04:11:25;153.00;;;23.92;;
51792;SDS011;37850;53.178;6.376;2023-02-14T04:13:51;68.82;;;22.55;;
51792;SDS011;37850;53.178;6.376;2023-02-14T04:16:17;56.60;;;21.25;;
51792;SDS011;37850;53.178;6.376;2023-02-14T04:18:43;59.22;;;20.23;;
51792;SDS011;37850;53.178;6.376;2023-02-14T04:21:27;83.47;;;20.02;;
51792;SDS011;37850;53.178;6.376;2023-02-14T04:23:53;39.42;;;20.52;;
51792;SDS011;37850;53.178;6.376;2023-02-14T04:26:19;72.88;;;20.08;;
51792;SDS011;37850;53.178;6.376;2023-02-14T04:28:44;65.70;;;21.00;;
51792;SDS011;37850;53.178;6.376;2023-02-14T04:31:10;51.55;;;20.80;;
51792;SDS011;37850;53.178;6.376;2023-02-14T04:33:36;80.10;;;21.20;;
51792;SDS011;37850;53.178;6.376;2023-02-14T04:36:03;46.15;;;21.13;;
51792;SDS011;37850;53.178;6.376;2023-02-14T04:38:30;126.55;;;21.75;;
51792;SDS011;37850;53.178;6.376;2023-02-14T04:40:56;136.38;;;25.38;;
51792;SDS011;37850;53.178;6.376;2023-02-14T04:43:22;56.70;;;20.33;;
51792;SDS011;37850;53.178;6.376;2023-02-14T04:45:51;81.75;;;21.75;;
51792;SDS011;37850;53.178;6.376;2023-02-14T04:48:17;65.85;;;20.50;;
51792;SDS011;37850;53.178;6.376;2023-02-14T04:50:43;62.33;;;20.58;;
51792;SDS011;37850;53.178;6.376;2023-02-14T04:53:09;100.82;;;21.20;;
51792;SDS011;37850;53.178;6.376;2023-02-14T04:55:34;38.67;;;19.27;;
51792;SDS011;37850;53.178;6.376;2023-02-14T04:58:00;77.75;;;21.55;;
51792;SDS011;37850;53.178;6.376;2023-02-14T05:00:26;77.97;;;22.38;;
51792;SDS011;37850;53.178;6.376;2023-02-14T05:02:51;50.83;;;20.88;;
51792;SDS011;37850;53.178;6.376;2023-02-14T05:05:17;278.17;;;24.85;;
51792;SDS011;37850;53.178;6.376;2023-02-14T05:07:43;288.00;;;27.45;;
51792;SDS011;37850;53.178;6.376;2023-02-14T05:10:12;52.80;;;20.70;;
51792;SDS011;37850;53.178;6.376;2023-02-14T05:12:38;124.35;;;21.40;;
51792;SDS011;37850;53.178;6.376;2023-02-14T05:15:04;41.47;;;20.38;;
51792;SDS011;37850;53.178;6.376;2023-02-14T05:17:30;241.30;;;23.15;;
51792;SDS011;37850;53.178;6.376;2023-02-14T05:19:56;37.20;;;19.88;;
51792;SDS011;37850;53.178;6.376;2023-02-14T05:22:21;87.00;;;19.83;;
51792;SDS011;37850;53.178;6.376;2023-02-14T05:24:47;146.93;;;19.83;;
51792;SDS011;37850;53.178;6.376;2023-02-14T05:27:13;62.58;;;18.45;;
51792;SDS011;37850;53.178;6.376;2023-02-14T05:29:38;81.20;;;19.15;;
51792;SDS011;37850;53.178;6.376;2023-02-14T05:32:04;212.38;;;21.80;;
51792;SDS011;37850;53.178;6.376;2023-02-14T05:34:30;37.55;;;18.25;;
51792;SDS011;37850;53.178;6.376;2023-02-14T05:36:56;127.85;;;19.60;;
51792;SDS011;37850;53.178;6.376;2023-02-14T05:39:21;36.20;;;17.90;;
51792;SDS011;37850;53.178;6.376;2023-02-14T05:41:47;44.28;;;16.85;;
51792;SDS011;37850;53.178;6.376;2023-02-14T05:44:13;60.25;;;17.52;;
51792;SDS011;37850;53.178;6.376;2023-02-14T05:46:38;114.88;;;19.70;;
51792;SDS011;37850;53.178;6.376;2023-02-14T05:49:04;80.10;;;18.33;;
51792;SDS011;37850;53.178;6.376;2023-02-14T05:51:30;44.83;;;16.90;;
51792;SDS011;37850;53.178;6.376;2023-02-14T05:53:56;121.47;;;19.83;;
51792;SDS011;37850;53.178;6.376;2023-02-14T05:56:24;113.85;;;19.27;;
51792;SDS011;37850;53.178;6.376;2023-02-14T05:58:49;112.40;;;19.40;;
51792;SDS011;37850;53.178;6.376;2023-02-14T06:01:15;103.60;;;20.13;;
51792;SDS011;37850;53.178;6.376;2023-02-14T06:03:41;54.53;;;17.52;;
51792;SDS011;37850;53.178;6.376;2023-02-14T06:06:06;150.05;;;20.67;;
51792;SDS011;37850;53.178;6.376;2023-02-14T06:08:32;98.38;;;19.13;;
51792;SDS011;37850;53.178;6.376;2023-02-14T06:10:58;133.18;;;19.88;;
51792;SDS011;37850;53.178;6.376;2023-02-14T06:13:24;95.15;;;18.05;;
51792;SDS011;37850;53.178;6.376;2023-02-14T06:15:49;52.70;;;17.45;;
51792;SDS011;37850;53.178;6.376;2023-02-14T06:18:15;82.13;;;19.45;;
51792;SDS011;37850;53.178;6.376;2023-02-14T06:20:41;38.97;;;17.40;;
51792;SDS011;37850;53.178;6.376;2023-02-14T06:23:08;66.93;;;18.13;;
51792;SDS011;37850;53.178;6.376;2023-02-14T06:25:34;94.05;;;18.70;;
51792;SDS011;37850;53.178;6.376;2023-02-14T06:28:00;54.15;;;16.60;;
51792;SDS011;37850;53.178;6.376;2023-02-14T06:30:25;52.60;;;17.65;;
51792;SDS011;37850;53.178;6.376;2023-02-14T06:32:52;89.13;;;18.30;;
51792;SDS011;37850;53.178;6.376;2023-02-14T06:35:17;45.05;;;16.52;;
51792;SDS011;37850;53.178;6.376;2023-02-14T06:37:43;121.88;;;19.98;;
51792;SDS011;37850;53.178;6.376;2023-02-14T06:40:10;34.30;;;16.00;;
51792;SDS011;37850;53.178;6.376;2023-02-14T06:42:36;38.17;;;16.10;;
51792;SDS011;37850;53.178;6.376;2023-02-14T06:45:03;52.05;;;17.38;;
51792;SDS011;37850;53.178;6.376;2023-02-14T06:47:30;86.75;;;17.48;;
51792;SDS011;37850;53.178;6.376;2023-02-14T06:49:55;75.30;;;17.98;;
51792;SDS011;37850;53.178;6.376;2023-02-14T06:52:24;52.72;;;17.13;;
51792;SDS011;37850;53.178;6.376;2023-02-14T06:54:50;45.10;;;16.70;;
51792;SDS011;37850;53.178;6.376;2023-02-14T06:57:16;32.63;;;16.73;;
51792;SDS011;37850;53.178;6.376;2023-02-14T06:59:41;31.45;;;17.00;;
51792;SDS011;37850;53.178;6.376;2023-02-14T07:02:08;36.88;;;15.55;;
51792;SDS011;37850;53.178;6.376;2023-02-14T07:04:35;26.52;;;16.38;;
51792;SDS011;37850;53.178;6.376;2023-02-14T07:07:01;27.30;;;15.82;;
51792;SDS011;37850;53.178;6.376;2023-02-14T07:09:27;28.58;;;15.80;;
51792;SDS011;37850;53.178;6.376;2023-02-14T07:11:53;27.08;;;15.93;;
51792;SDS011;37850;53.178;6.376;2023-02-14T07:14:18;28.55;;;15.35;;
51792;SDS011;37850;53.178;6.376;2023-02-14T07:16:44;26.05;;;14.98;;
51792;SDS011;37850;53.178;6.376;2023-02-14T07:19:10;26.45;;;15.25;;
51792;SDS011;37850;53.178;6.376;2023-02-14T07:21:36;39.20;;;16.00;;
51792;SDS011;37850;53.178;6.376;2023-02-14T07:24:02;26.70;;;16.40;;
51792;SDS011;37850;53.178;6.376;2023-02-14T07:26:27;25.52;;;14.93;;
51792;SDS011;37850;53.178;6.376;2023-02-14T07:28:53;37.22;;;15.43;;
51792;SDS011;37850;53.178;6.376;2023-02-14T07:31:19;36.30;;;15.77;;
51792;SDS011;37850;53.178;6.376;2023-02-14T07:33:46;28.92;;;14.80;;
51792;SDS011;37850;53.178;6.376;2023-02-14T07:36:12;23.40;;;14.40;;
51792;SDS011;37850;53.178;6.376;2023-02-14T07:38:38;71.63;;;16.77;;
51792;SDS011;37850;53.178;6.376;2023-02-14T07:41:04;39.20;;;14.85;;
51792;SDS011;37850;53.178;6.376;2023-02-14T07:43:30;29.98;;;14.85;;
51792;SDS011;37850;53.178;6.376;2023-02-14T07:45:58;66.47;;;16.25;;
51792;SDS011;37850;53.178;6.376;2023-02-14T07:48:25;42.78;;;14.68;;
51792;SDS011;37850;53.178;6.376;2023-02-14T07:50:51;46.08;;;15.57;;
51792;SDS011;37850;53.178;6.376;2023-02-14T07:53:20;27.02;;;15.38;;
51792;SDS011;37850;53.178;6.376;2023-02-14T07:55:49;37.28;;;15.50;;
51792;SDS011;37850;53.178;6.376;2023-02-14T07:58:16;46.75;;;17.17;;
51792;SDS011;37850;53.178;6.376;2023-02-14T08:00:43;45.28;;;15.52;;
51792;SDS011;37850;53.178;6.376;2023-02-14T08:03:10;24.48;;;14.88;;
51792;SDS011;37850;53.178;6.376;2023-02-14T08:05:36;28.83;;;15.68;;
51792;SDS011;37850;53.178;6.376;2023-02-14T08:08:02;41.35;;;15.63;;
51792;SDS011;37850;53.178;6.376;2023-02-14T08:10:28;30.95;;;15.57;;
51792;SDS011;37850;53.178;6.376;2023-02-14T08:12:54;33.35;;;15.15;;
51792;SDS011;37850;53.178;6.376;2023-02-14T08:15:26;32.80;;;14.95;;
51792;SDS011;37850;53.178;6.376;2023-02-14T08:18:15;55.97;;;16.42;;
51792;SDS011;37850;53.178;6.376;2023-02-14T08:20:43;46.78;;;14.73;;
51792;SDS011;37850;53.178;6.376;2023-02-14T08:23:10;31.65;;;16.05;;
51792;SDS011;37850;53.178;6.376;2023-02-14T08:25:36;46.60;;;16.48;;
51792;SDS011;37850;53.178;6.376;2023-02-14T08:28:02;27.88;;;16.20;;
51792;SDS011;37850;53.178;6.376;2023-02-14T08:30:29;41.53;;;16.83;;
51792;SDS011;37850;53.178;6.376;2023-02-14T08:32:55;58.88;;;17.17;;
51792;SDS011;37850;53.178;6.376;2023-02-14T08:35:21;41.22;;;16.38;;
51792;SDS011;37850;53.178;6.376;2023-02-14T08:37:46;28.60;;;15.95;;
51792;SDS011;37850;53.178;6.376;2023-02-14T08:40:13;28.77;;;15.02;;
51792;SDS011;37850;53.178;6.376;2023-02-14T08:42:38;37.35;;;16.83;;
51792;SDS011;37850;53.178;6.376;2023-02-14T08:45:04;34.50;;;17.05;;
51792;SDS011;37850;53.178;6.376;2023-02-14T08:47:31;31.08;;;17.38;;
51792;SDS011;37850;53.178;6.376;2023-02-14T08:52:29;40.25;;;18.95;;
51792;SDS011;37850;53.178;6.376;2023-02-14T08:54:55;34.58;;;18.65;;
51792;SDS011;37850;53.178;6.376;2023-02-14T08:57:21;35.50;;;19.67;;
51792;SDS011;37850;53.178;6.376;2023-02-14T08:59:47;32.85;;;19.33;;
51792;SDS011;37850;53.178;6.376;2023-02-14T09:02:13;35.10;;;19.55;;
51792;SDS011;37850;53.178;6.376;2023-02-14T09:04:41;42.28;;;21.35;;
51792;SDS011;37850;53.178;6.376;2023-02-14T09:07:06;39.30;;;21.08;;
51792;SDS011;37850;53.178;6.376;2023-02-14T09:09:32;38.22;;;21.75;;
51792;SDS011;37850;53.178;6.376;2023-02-14T09:12:01;38.97;;;21.67;;
51792;SDS011;37850;53.178;6.376;2023-02-14T09:14:28;44.00;;;23.75;;
51792;SDS011;37850;53.178;6.376;2023-02-14T09:16:54;46.35;;;26.30;;
51792;SDS011;37850;53.178;6.376;2023-02-14T09:19:20;42.72;;;24.00;;
51792;SDS011;37850;53.178;6.376;2023-02-14T09:21:46;44.83;;;25.48;;
51792;SDS011;37850;53.178;6.376;2023-02-14T09:24:11;43.80;;;25.63;;
51792;SDS011;37850;53.178;6.376;2023-02-14T09:26:37;48.90;;;27.10;;
51792;SDS011;37850;53.178;6.376;2023-02-14T09:29:06;49.28;;;28.27;;
51792;SDS011;37850;53.178;6.376;2023-02-14T09:31:31;55.22;;;31.58;;
51792;SDS011;37850;53.178;6.376;2023-02-14T09:33:57;63.30;;;35.35;;
51792;SDS011;37850;53.178;6.376;2023-02-14T09:36:23;63.22;;;34.78;;
51792;SDS011;37850;53.178;6.376;2023-02-14T09:38:48;63.20;;;34.03;;
51792;SDS011;37850;53.178;6.376;2023-02-14T09:44:03;58.15;;;33.38;;
51792;SDS011;37850;53.178;6.376;2023-02-14T09:46:40;62.65;;;36.58;;
51792;SDS011;37850;53.178;6.376;2023-02-14T09:49:14;64.25;;;35.92;;
51792;SDS011;37850;53.178;6.376;2023-02-14T09:51:44;66.57;;;35.13;;
51792;SDS011;37850;53.178;6.376;2023-02-14T09:54:15;61.53;;;34.13;;
51792;SDS011;37850;53.178;6.376;2023-02-14T09:56:52;61.58;;;33.95;;
51792;SDS011;37850;53.178;6.376;2023-02-14T09:59:25;57.95;;;33.92;;
51792;SDS011;37850;53.178;6.376;2023-02-14T10:05:09;55.33;;;32.13;;
51792;SDS011;37850;53.178;6.376;2023-02-14T10:07:47;56.33;;;32.25;;
51792;SDS011;37850;53.178;6.376;2023-02-14T10:10:39;54.13;;;33.42;;
51792;SDS011;37850;53.178;6.376;2023-02-14T10:15:40;52.00;;;32.78;;
51792;SDS011;37850;53.178;6.376;2023-02-14T10:18:22;57.58;;;32.60;;
51792;SDS011;37850;53.178;6.376;2023-02-14T10:20:57;51.38;;;31.25;;
51792;SDS011;37850;53.178;6.376;2023-02-14T10:26:06;51.05;;;31.92;;
51792;SDS011;37850;53.178;6.376;2023-02-14T10:28:47;53.17;;;31.63;;
51792;SDS011;37850;53.178;6.376;2023-02-14T10:33:58;53.88;;;33.22;;
51792;SDS011;37850;53.178;6.376;2023-02-14T10:42:43;49.33;;;31.60;;
51792;SDS011;37850;53.178;6.376;2023-02-14T10:45:25;46.63;;;29.77;;
51792;SDS011;37850;53.178;6.376;2023-02-14T10:56:30;46.22;;;30.77;;
51792;SDS011;37850;53.178;6.376;2023-02-14T10:59:12;52.30;;;32.05;;
51792;SDS011;37850;53.178;6.376;2023-02-14T11:01:49;48.65;;;30.75;;
51792;SDS011;37850;53.178;6.376;2023-02-14T11:04:17;48.60;;;30.98;;
51792;SDS011;37850;53.178;6.376;2023-02-14T11:06:45;55.97;;;31.92;;
51792;SDS011;37850;53.178;6.376;2023-02-14T11:09:13;51.58;;;32.53;;
51792;SDS011;37850;53.178;6.376;2023-02-14T11:11:41;45.03;;;30.20;;
51792;SDS011;37850;53.178;6.376;2023-02-14T11:14:23;52.72;;;31.20;;
51792;SDS011;37850;53.178;6.376;2023-02-14T11:16:54;47.95;;;30.00;;
51792;SDS011;37850;53.178;6.376;2023-02-14T11:19:28;48.28;;;29.52;;
51792;SDS011;37850;53.178;6.376;2023-02-14T11:21:58;47.50;;;30.85;;
51792;SDS011;37850;53.178;6.376;2023-02-14T11:26:53;48.38;;;30.33;;
51792;SDS011;37850;53.178;6.376;2023-02-14T11:29:29;49.92;;;30.35;;
51792;SDS011;37850;53.178;6.376;2023-02-14T11:32:04;49.53;;;30.58;;
51792;SDS011;37850;53.178;6.376;2023-02-14T11:34:37;45.17;;;29.42;;
51792;SDS011;37850;53.178;6.376;2023-02-14T11:38:18;48.15;;;30.27;;
51792;SDS011;37850;53.178;6.376;2023-02-14T11:45:39;54.05;;;31.95;;
51792;SDS011;37850;53.178;6.376;2023-02-14T11:48:20;51.03;;;32.15;;
51792;SDS011;37850;53.178;6.376;2023-02-14T11:53:19;48.17;;;30.13;;
51792;SDS011;37850;53.178;6.376;2023-02-14T11:55:57;48.75;;;31.35;;
51792;SDS011;37850;53.178;6.376;2023-02-14T11:59:10;48.22;;;30.73;;
51792;SDS011;37850;53.178;6.376;2023-02-14T12:01:11;46.38;;;29.88;;
51792;SDS011;37850;53.178;6.376;2023-02-14T12:03:46;48.33;;;29.95;;
51792;SDS011;37850;53.178;6.376;2023-02-14T12:06:21;49.17;;;29.77;;
51792;SDS011;37850;53.178;6.376;2023-02-14T12:09:12;47.80;;;30.48;;
51792;SDS011;37850;53.178;6.376;2023-02-14T12:11:54;46.45;;;29.23;;
51792;SDS011;37850;53.178;6.376;2023-02-14T12:14:38;44.20;;;29.70;;
51792;SDS011;37850;53.178;6.376;2023-02-14T12:19:50;47.28;;;28.90;;
51792;SDS011;37850;53.178;6.376;2023-02-14T12:25:20;45.65;;;29.17;;
51792;SDS011;37850;53.178;6.376;2023-02-14T12:28:04;46.45;;;29.85;;
51792;SDS011;37850;53.178;6.376;2023-02-14T12:30:37;42.88;;;28.33;;
51792;SDS011;37850;53.178;6.376;2023-02-14T12:33:09;48.70;;;29.67;;
51792;SDS011;37850;53.178;6.376;2023-02-14T12:42:24;45.47;;;28.13;;
51792;SDS011;37850;53.178;6.376;2023-02-14T12:55:47;45.03;;;28.25;;
51792;SDS011;37850;53.178;6.376;2023-02-14T13:04:25;44.78;;;27.98;;
51792;SDS011;37850;53.178;6.376;2023-02-14T13:07:05;44.67;;;28.73;;
51792;SDS011;37850;53.178;6.376;2023-02-14T13:09:39;46.13;;;29.13;;
51792;SDS011;37850;53.178;6.376;2023-02-14T13:15:39;46.78;;;28.58;;
51792;SDS011;37850;53.178;6.376;2023-02-14T13:17:49;42.97;;;28.02;;
51792;SDS011;37850;53.178;6.376;2023-02-14T13:23:15;47.65;;;31.17;;
51792;SDS011;37850;53.178;6.376;2023-02-14T13:25:47;46.53;;;30.52;;
51792;SDS011;37850;53.178;6.376;2023-02-14T13:28:18;45.40;;;29.67;;
51792;SDS011;37850;53.178;6.376;2023-02-14T13:30:44;47.88;;;29.85;;
51792;SDS011;37850;53.178;6.376;2023-02-14T13:33:19;45.83;;;31.17;;
51792;SDS011;37850;53.178;6.376;2023-02-14T13:35:56;44.90;;;29.38;;
51792;SDS011;37850;53.178;6.376;2023-02-14T13:38:25;49.38;;;31.83;;
51792;SDS011;37850;53.178;6.376;2023-02-14T13:40:52;48.65;;;31.88;;
51792;SDS011;37850;53.178;6.376;2023-02-14T13:46:21;48.50;;;31.50;;
51792;SDS011;37850;53.178;6.376;2023-02-14T13:52:12;48.93;;;32.13;;
51792;SDS011;37850;53.178;6.376;2023-02-14T13:55:02;52.80;;;33.63;;
51792;SDS011;37850;53.178;6.376;2023-02-14T13:57:35;54.60;;;34.20;;
51792;SDS011;37850;53.178;6.376;2023-02-14T14:18:51;48.85;;;30.00;;
51792;SDS011;37850;53.178;6.376;2023-02-14T14:21:24;44.60;;;30.48;;
51792;SDS011;37850;53.178;6.376;2023-02-14T14:24:01;44.42;;;30.48;;
51792;SDS011;37850;53.178;6.376;2023-02-14T14:26:28;49.47;;;29.58;;
51792;SDS011;37850;53.178;6.376;2023-02-14T14:29:00;49.50;;;30.25;;
51792;SDS011;37850;53.178;6.376;2023-02-14T14:31:27;47.35;;;30.25;;
51792;SDS011;37850;53.178;6.376;2023-02-14T14:33:58;46.28;;;31.30;;
51792;SDS011;37850;53.178;6.376;2023-02-14T14:36:25;45.83;;;30.73;;
51792;SDS011;37850;53.178;6.376;2023-02-14T14:38:51;45.83;;;31.95;;
51792;SDS011;37850;53.178;6.376;2023-02-14T14:41:18;46.05;;;31.13;;
51792;SDS011;37850;53.178;6.376;2023-02-14T14:43:50;49.22;;;31.13;;
51792;SDS011;37850;53.178;6.376;2023-02-14T14:46:17;50.03;;;30.92;;
51792;SDS011;37850;53.178;6.376;2023-02-14T14:48:44;46.85;;;32.03;;
51792;SDS011;37850;53.178;6.376;2023-02-14T14:51:26;47.97;;;30.45;;
51792;SDS011;37850;53.178;6.376;2023-02-14T14:53:56;46.00;;;30.45;;
51792;SDS011;37850;53.178;6.376;2023-02-14T14:56:26;48.70;;;31.50;;
51792;SDS011;37850;53.178;6.376;2023-02-14T14:58:57;48.17;;;30.83;;
51792;SDS011;37850;53.178;6.376;2023-02-14T15:01:39;45.40;;;30.40;;
51792;SDS011;37850;53.178;6.376;2023-02-14T15:06:49;47.85;;;31.10;;
51792;SDS011;37850;53.178;6.376;2023-02-14T15:09:18;46.20;;;30.48;;
51792;SDS011;37850;53.178;6.376;2023-02-14T15:11:46;48.83;;;31.58;;
51792;SDS011;37850;53.178;6.376;2023-02-14T15:14:36;49.05;;;30.75;;
51792;SDS011;37850;53.178;6.376;2023-02-14T15:17:09;47.92;;;30.85;;
51792;SDS011;37850;53.178;6.376;2023-02-14T15:19:49;43.95;;;30.20;;
51792;SDS011;37850;53.178;6.376;2023-02-14T15:22:21;45.95;;;30.25;;
51792;SDS011;37850;53.178;6.376;2023-02-14T15:25:00;47.58;;;29.65;;
51792;SDS011;37850;53.178;6.376;2023-02-14T15:27:31;46.65;;;30.58;;
51792;SDS011;37850;53.178;6.376;2023-02-14T15:30:06;48.90;;;31.15;;
51792;SDS011;37850;53.178;6.376;2023-02-14T15:32:47;52.67;;;30.90;;
51792;SDS011;37850;53.178;6.376;2023-02-14T15:35:15;45.45;;;30.95;;
51792;SDS011;37850;53.178;6.376;2023-02-14T15:37:43;48.17;;;30.88;;
51792;SDS011;37850;53.178;6.376;2023-02-14T15:40:19;48.33;;;30.63;;
51792;SDS011;37850;53.178;6.376;2023-02-14T15:42:50;46.00;;;29.40;;
51792;SDS011;37850;53.178;6.376;2023-02-14T15:50:29;50.72;;;32.38;;
51792;SDS011;37850;53.178;6.376;2023-02-14T15:53:04;44.25;;;30.05;;
51792;SDS011;37850;53.178;6.376;2023-02-14T15:55:50;47.30;;;31.02;;
51792;SDS011;37850;53.178;6.376;2023-02-14T15:58:24;47.25;;;31.33;;
51792;SDS011;37850;53.178;6.376;2023-02-14T16:00:53;47.80;;;32.42;;
51792;SDS011;37850;53.178;6.376;2023-02-14T16:03:21;45.53;;;30.48;;
51792;SDS011;37850;53.178;6.376;2023-02-14T16:05:49;49.35;;;32.22;;
51792;SDS011;37850;53.178;6.376;2023-02-14T16:11:13;42.10;;;29.38;;
51792;SDS011;37850;53.178;6.376;2023-02-14T16:16:55;48.30;;;31.00;;
51792;SDS011;37850;53.178;6.376;2023-02-14T16:19:31;46.70;;;30.25;;
51792;SDS011;37850;53.178;6.376;2023-02-14T16:22:22;47.42;;;30.10;;
51792;SDS011;37850;53.178;6.376;2023-02-14T16:24:50;51.45;;;32.72;;
51792;SDS011;37850;53.178;6.376;2023-02-14T16:27:16;49.65;;;30.90;;
51792;SDS011;37850;53.178;6.376;2023-02-14T16:29:41;47.03;;;29.63;;
51792;SDS011;37850;53.178;6.376;2023-02-14T16:32:12;52.50;;;32.17;;
51792;SDS011;37850;53.178;6.376;2023-02-14T16:34:44;47.35;;;29.00;;
51792;SDS011;37850;53.178;6.376;2023-02-14T16:37:24;47.28;;;29.77;;
51792;SDS011;37850;53.178;6.376;2023-02-14T16:39:55;50.17;;;32.05;;
51792;SDS011;37850;53.178;6.376;2023-02-14T16:42:21;49.28;;;31.77;;
51792;SDS011;37850;53.178;6.376;2023-02-14T16:44:48;47.45;;;30.73;;
51792;SDS011;37850;53.178;6.376;2023-02-14T16:47:15;49.85;;;30.85;;
51792;SDS011;37850;53.178;6.376;2023-02-14T16:49:42;48.92;;;30.00;;
51792;SDS011;37850;53.178;6.376;2023-02-14T16:52:12;54.33;;;32.50;;
51792;SDS011;37850;53.178;6.376;2023-02-14T16:54:40;45.42;;;28.65;;
51792;SDS011;37850;53.178;6.376;2023-02-14T16:57:06;47.78;;;29.52;;
51792;SDS011;37850;53.178;6.376;2023-02-14T16:59:42;51.03;;;30.98;;
51792;SDS011;37850;53.178;6.376;2023-02-14T17:02:10;45.83;;;29.15;;
51792;SDS011;37850;53.178;6.376;2023-02-14T17:04:38;54.88;;;32.60;;
51792;SDS011;37850;53.178;6.376;2023-02-14T17:07:04;48.60;;;29.90;;
51792;SDS011;37850;53.178;6.376;2023-02-14T17:09:32;46.80;;;30.33;;
51792;SDS011;37850;53.178;6.376;2023-02-14T17:12:04;49.25;;;28.98;;
51792;SDS011;37850;53.178;6.376;2023-02-14T17:14:38;48.00;;;30.13;;
51792;SDS011;37850;53.178;6.376;2023-02-14T17:17:06;48.85;;;30.85;;
51792;SDS011;37850;53.178;6.376;2023-02-14T17:19:33;50.28;;;30.70;;